Time;durP1;ratioP1;P1;durP2;ratioP2;P2;SDS_P1;SDS_P2;PMS_P1;PMS_P2;Temp;Humidity;BMP_temperature;BMP_pressure;BME280_temperature;BME280_humidity;BME280_pressure;Samples;Min_cycle;Max_cycle;Signal;HPM_P1;HPM_P2
2024/01/07 00:00:46;;;;;;;6.20;2.80;;;1.20;99.90;;;;;;5076482;28;20446;-64
2024/01/07 00:03:16;;;;;;;7.60;3.07;;;1.30;99.90;;;;;;5076416;28;20470;-63
2024/01/07 00:05:43;;;;;;;3.10;2.33;;;1.30;99.90;;;;;;5075642;28;20484;-61
2024/01/07 00:08:09;;;;;;;2.20;2.00;;;1.30;99.90;;;;;;5076012;28;20472;-62
2024/01/07 00:10:36;;;;;;;3.87;2.53;;;1.30;99.90;;;;;;5076090;28;20528;-61
2024/01/07 00:13:03;;;;;;;6.27;2.97;;;1.30;99.90;;;;;;5075650;28;20424;-63
2024/01/07 00:15:31;;;;;;;3.67;2.17;;;1.30;99.90;;;;;;5075679;28;20445;-62
2024/01/07 00:17:58;;;;;;;6.60;3.33;;;1.30;99.90;;;;;;5076051;28;20533;-62
2024/01/07 00:20:26;;;;;;;2.43;1.73;;;1.30;99.90;;;;;;5076256;28;20459;-59
2024/01/07 00:22:53;;;;;;;2.87;1.80;;;1.30;99.90;;;;;;5075786;28;20431;-62
2024/01/07 00:25:19;;;;;;;4.33;1.90;;;1.20;99.90;;;;;;5079449;28;20462;-59
2024/01/07 00:27:46;;;;;;;4.50;2.50;;;1.10;99.90;;;;;;5080108;28;20452;-62
2024/01/07 00:30:13;;;;;;;2.57;1.90;;;1.10;99.90;;;;;;5079572;28;20447;-61
2024/01/07 00:32:40;;;;;;;2.77;1.50;;;1.10;99.90;;;;;;5077341;28;20505;-63
2024/01/07 00:35:08;;;;;;;2.00;1.60;;;1.10;99.90;;;;;;5076314;28;20430;-62
2024/01/07 00:37:36;;;;;;;3.27;2.10;;;1.00;99.90;;;;;;5077293;28;20447;-61
2024/01/07 00:40:03;;;;;;;43.67;13.87;;;1.00;99.90;;;;;;5076028;28;20753;-62
2024/01/07 00:42:30;;;;;;;31.50;9.70;;;1.00;99.90;;;;;;5076551;28;20438;-63
2024/01/07 00:44:56;;;;;;;14.07;6.13;;;1.00;99.90;;;;;;5076572;28;20494;-62
2024/01/07 00:47:23;;;;;;;12.43;6.13;;;1.10;99.90;;;;;;5077143;28;20516;-59
2024/01/07 00:49:50;;;;;;;7.77;3.87;;;1.00;99.90;;;;;;5076960;28;20447;-62
2024/01/07 00:52:17;;;;;;;4.70;2.43;;;1.00;99.90;;;;;;5076737;28;20473;-60
2024/01/07 00:54:45;;;;;;;5.00;2.20;;;1.00;99.90;;;;;;5076880;28;20477;-63
2024/01/07 00:57:12;;;;;;;5.03;1.47;;;0.90;99.90;;;;;;5069342;28;20461;-63
2024/01/07 00:59:39;;;;;;;6.00;3.63;;;0.90;99.90;;;;;;5069113;28;20454;-63
2024/01/07 01:02:06;;;;;;;6.07;2.80;;;0.90;99.90;;;;;;5065966;28;20464;-61
2024/01/07 01:04:33;;;;;;;2.97;2.40;;;0.90;99.90;;;;;;5066898;28;20519;-62
2024/01/07 01:07:00;;;;;;;3.90;2.60;;;0.80;99.90;;;;;;5066206;28;20572;-63
2024/01/07 01:09:29;;;;;;;3.60;2.00;;;0.80;99.90;;;;;;5065775;28;20510;-63
2024/01/07 01:11:57;;;;;;;6.27;2.93;;;0.80;99.90;;;;;;5066539;28;20479;-63
2024/01/07 01:14:24;;;;;;;10.37;3.90;;;0.80;99.90;;;;;;5061119;28;20504;-63
2024/01/07 01:16:51;;;;;;;6.00;3.80;;;0.80;99.90;;;;;;5060870;28;20479;-63
2024/01/07 01:19:18;;;;;;;2.80;1.40;;;0.80;99.90;;;;;;5060854;28;20477;-60
2024/01/07 01:21:45;;;;;;;1.73;1.23;;;0.80;99.90;;;;;;5060989;28;20480;-63
2024/01/07 01:24:12;;;;;;;1.83;1.60;;;0.70;99.90;;;;;;5060900;28;20478;-62
2024/01/07 01:26:39;;;;;;;2.40;1.23;;;0.70;99.90;;;;;;5060592;28;20476;-63
2024/01/07 01:29:08;;;;;;;1.67;1.40;;;0.70;99.90;;;;;;5061362;28;20913;-62
2024/01/07 01:31:34;;;;;;;5.50;2.30;;;0.60;99.90;;;;;;5061371;28;20900;-60
2024/01/07 01:34:02;;;;;;;1.63;1.17;;;0.60;99.90;;;;;;5060088;28;20556;-63
2024/01/07 01:36:29;;;;;;;2.40;1.53;;;0.60;99.90;;;;;;5059827;28;20542;-63
2024/01/07 01:38:55;;;;;;;2.23;1.83;;;0.60;99.90;;;;;;5061258;28;20469;-64
2024/01/07 01:41:22;;;;;;;2.23;1.70;;;0.60;99.90;;;;;;5060478;28;20529;-63
2024/01/07 01:43:49;;;;;;;4.50;2.50;;;0.60;99.90;;;;;;5061222;28;20467;-61
2024/01/07 01:46:17;;;;;;;1.50;0.90;;;0.50;99.90;;;;;;5060733;28;20526;-61
2024/01/07 01:48:44;;;;;;;3.17;2.10;;;0.50;99.90;;;;;;5061297;28;20945;-63
2024/01/07 01:51:12;;;;;;;4.00;1.77;;;0.40;99.90;;;;;;5060602;28;20525;-62
2024/01/07 01:53:39;;;;;;;2.73;1.60;;;0.40;99.90;;;;;;5060470;28;20448;-58
2024/01/07 01:56:08;;;;;;;2.20;1.47;;;0.40;99.90;;;;;;5060675;28;20581;-63
2024/01/07 01:58:35;;;;;;;2.90;1.60;;;1.10;99.90;;;;;;5060868;28;20553;-62
2024/01/07 02:01:05;;;;;;;2.30;1.43;;;0.40;99.90;;;;;;5060507;28;20506;-64
2024/01/07 02:03:33;;;;;;;2.67;1.80;;;1.30;99.90;;;;;;5060942;28;20533;-63
2024/01/07 02:06:00;;;;;;;2.57;1.57;;;0.40;99.90;;;;;;5060100;28;20512;-64
2024/01/07 02:08:27;;;;;;;3.00;1.33;;;0.50;99.90;;;;;;5060895;28;20474;-63
2024/01/07 02:10:54;;;;;;;3.00;1.97;;;0.30;99.90;;;;;;5060443;28;20494;-62
2024/01/07 02:13:21;;;;;;;2.17;1.43;;;0.90;99.90;;;;;;5061370;28;20466;-63
2024/01/07 02:15:48;;;;;;;2.43;1.50;;;0.30;99.90;;;;;;5061252;28;20478;-61
2024/01/07 02:18:17;;;;;;;2.27;1.90;;;0.30;99.90;;;;;;5060106;28;20527;-66
2024/01/07 02:20:48;;;;;;;3.17;1.50;;;0.30;99.90;;;;;;5059938;28;20446;-62
2024/01/07 02:23:14;;;;;;;2.57;1.20;;;0.30;99.90;;;;;;5060084;28;20535;-61
2024/01/07 02:25:43;;;;;;;1.60;1.30;;;0.20;99.90;;;;;;5060404;28;20482;-62
2024/01/07 02:28:09;;;;;;;4.43;2.63;;;0.20;99.90;;;;;;5060497;28;20501;-63
2024/01/07 02:30:38;;;;;;;2.47;1.20;;;0.20;99.90;;;;;;5060596;28;20445;-62
2024/01/07 02:33:05;;;;;;;2.10;1.90;;;0.20;99.90;;;;;;5060759;28;20538;-64
2024/01/07 02:35:32;;;;;;;3.97;1.30;;;0.20;99.90;;;;;;5059883;28;20490;-63
2024/01/07 02:37:59;;;;;;;4.30;1.20;;;0.20;99.90;;;;;;5060450;28;20443;-63
2024/01/07 02:40:26;;;;;;;4.73;1.60;;;0.20;99.90;;;;;;5060579;28;20474;-63
2024/01/07 02:42:55;;;;;;;4.40;1.20;;;0.10;99.90;;;;;;5060293;28;20527;-62
2024/01/07 02:45:22;;;;;;;3.17;2.10;;;0.10;99.90;;;;;;5060354;28;20453;-63
2024/01/07 02:47:49;;;;;;;1.83;1.20;;;0.00;99.90;;;;;;5059365;28;20604;-63
2024/01/07 02:50:16;;;;;;;1.63;1.20;;;0.00;99.90;;;;;;5060423;28;20478;-62
2024/01/07 02:52:45;;;;;;;1.90;1.60;;;0.00;99.90;;;;;;5060033;28;20470;-63
2024/01/07 02:55:12;;;;;;;1.73;1.47;;;-0.10;99.90;;;;;;5059670;28;20532;-60
2024/01/07 02:57:39;;;;;;;1.40;1.00;;;-0.10;99.90;;;;;;5060510;28;20487;-63
2024/01/07 03:00:08;;;;;;;6.00;2.60;;;-0.20;99.90;;;;;;5059737;28;20509;-63
2024/01/07 03:02:35;;;;;;;2.83;1.70;;;-0.20;99.90;;;;;;5060233;28;20491;-62
2024/01/07 03:05:03;;;;;;;3.47;1.90;;;-0.20;99.90;;;;;;5060552;28;20458;-62
2024/01/07 03:07:30;;;;;;;2.80;1.47;;;-0.40;99.90;;;;;;5060239;28;20893;-61
2024/01/07 03:09:57;;;;;;;2.60;1.40;;;-0.40;99.90;;;;;;5060109;28;20557;-63
2024/01/07 03:12:24;;;;;;;4.93;1.50;;;-0.40;99.90;;;;;;5059544;28;20994;-62
2024/01/07 03:14:50;;;;;;;1.90;1.20;;;-0.40;99.90;;;;;;5059981;28;20549;-63
2024/01/07 03:17:19;;;;;;;2.33;2.13;;;-0.40;99.90;;;;;;5059755;28;20474;-62
2024/01/07 03:19:45;;;;;;;3.10;1.63;;;-0.40;99.90;;;;;;5059854;28;20503;-62
2024/01/07 03:22:12;;;;;;;1.20;0.80;;;-0.30;99.90;;;;;;5059783;28;20523;-62
2024/01/07 03:24:39;;;;;;;3.43;1.70;;;-0.50;99.90;;;;;;5059820;28;20461;-63
2024/01/07 03:27:06;;;;;;;2.60;1.77;;;-0.50;99.90;;;;;;5059629;28;20483;-62
2024/01/07 03:29:33;;;;;;;3.93;1.57;;;-0.50;99.90;;;;;;5059461;28;20858;-63
2024/01/07 03:32:00;;;;;;;2.73;1.30;;;-0.50;99.90;;;;;;5060724;28;20973;-62
2024/01/07 03:34:28;;;;;;;5.27;1.50;;;-0.50;99.90;;;;;;5060085;28;20942;-62
2024/01/07 03:36:55;;;;;;;2.97;1.60;;;-0.50;99.90;;;;;;5060113;28;20844;-62
2024/01/07 03:39:22;;;;;;;3.47;1.83;;;-0.50;99.90;;;;;;5060098;28;20918;-62
2024/01/07 03:41:48;;;;;;;4.90;1.73;;;-0.60;99.90;;;;;;5060537;28;20482;-62
2024/01/07 03:44:15;;;;;;;2.27;1.70;;;-0.60;99.90;;;;;;5060060;28;20529;-62
2024/01/07 03:46:42;;;;;;;3.60;1.83;;;-0.60;99.90;;;;;;5059732;28;20513;-61
2024/01/07 03:49:09;;;;;;;4.60;1.73;;;-0.60;99.90;;;;;;5059557;28;20842;-62
2024/01/07 03:51:38;;;;;;;5.10;1.50;;;-0.60;99.90;;;;;;5059932;28;20480;-62
2024/01/07 03:54:04;;;;;;;3.30;1.73;;;-0.60;99.90;;;;;;5059433;28;21146;-63
2024/01/07 03:56:31;;;;;;;2.60;1.70;;;-0.70;99.90;;;;;;5060670;28;20503;-62
2024/01/07 03:58:58;;;;;;;2.37;1.57;;;-0.70;99.90;;;;;;5061015;28;20533;-62
2024/01/07 04:01:25;;;;;;;2.70;1.43;;;-0.70;99.90;;;;;;5063817;28;20496;-62
2024/01/07 04:03:52;;;;;;;3.40;1.63;;;-0.70;99.90;;;;;;5063844;28;20450;-63
2024/01/07 04:06:18;;;;;;;2.80;1.60;;;-0.70;99.90;;;;;;5063712;28;20473;-63
2024/01/07 04:08:49;;;;;;;5.53;1.33;;;-0.70;99.90;;;;;;5063759;28;20474;-63
2024/01/07 04:11:16;;;;;;;1.30;1.00;;;-0.70;99.90;;;;;;5063300;28;20489;-62
2024/01/07 04:13:43;;;;;;;2.70;1.93;;;-0.70;99.90;;;;;;5063273;28;20475;-62
2024/01/07 04:16:17;;;;;;;2.00;1.30;;;-0.70;99.90;;;;;;5063045;28;20795;-64
2024/01/07 04:18:44;;;;;;;2.03;1.80;;;-0.70;99.90;;;;;;5062970;28;20903;-60
2024/01/07 04:21:11;;;;;;;1.67;1.47;;;-0.70;99.90;;;;;;5064228;28;20469;-62
2024/01/07 04:23:39;;;;;;;1.40;1.27;;;-0.80;99.90;;;;;;5063573;28;20468;-62
2024/01/07 04:26:07;;;;;;;1.30;1.13;;;-0.80;99.90;;;;;;5062998;28;20445;-62
2024/01/07 04:28:34;;;;;;;3.07;1.77;;;-0.80;99.90;;;;;;5063264;28;20522;-62
2024/01/07 04:31:01;;;;;;;1.87;1.10;;;-0.80;99.90;;;;;;5066419;28;20440;-61
2024/01/07 04:33:28;;;;;;;2.00;1.30;;;-0.70;99.90;;;;;;5078963;28;20478;-62
2024/01/07 04:35:57;;;;;;;6.47;1.50;;;-0.70;99.90;;;;;;5078674;28;20442;-62
2024/01/07 04:38:24;;;;;;;3.17;1.70;;;-0.80;99.90;;;;;;5079190;28;20506;-62
2024/01/07 04:40:51;;;;;;;8.30;1.67;;;-0.80;99.90;;;;;;5078898;28;20454;-60
2024/01/07 04:43:20;;;;;;;3.10;2.20;;;-0.80;99.90;;;;;;5079122;28;20459;-62
2024/01/07 04:45:47;;;;;;;2.17;1.30;;;-0.70;99.90;;;;;;5079275;28;20469;-61
2024/01/07 04:48:14;;;;;;;2.60;1.40;;;-0.70;99.90;;;;;;5078650;28;20569;-63
2024/01/07 04:50:41;;;;;;;2.50;1.63;;;-0.80;99.90;;;;;;5078750;28;20474;-62
2024/01/07 04:53:08;;;;;;;1.30;1.10;;;-0.80;99.90;;;;;;5078570;28;20462;-62
2024/01/07 04:55:35;;;;;;;1.20;0.93;;;-0.80;99.90;;;;;;5078734;28;20470;-61
2024/01/07 04:58:04;;;;;;;1.87;1.30;;;-0.80;99.90;;;;;;5078813;28;20403;-62
2024/01/07 05:00:32;;;;;;;3.60;2.20;;;-0.80;99.90;;;;;;5078574;28;20503;-60
2024/01/07 05:02:59;;;;;;;3.30;1.37;;;-0.90;99.90;;;;;;5078571;28;20501;-62
2024/01/07 05:05:27;;;;;;;3.43;1.43;;;-0.90;99.90;;;;;;5078458;28;20452;-63
2024/01/07 05:07:54;;;;;;;3.83;1.70;;;-0.90;99.90;;;;;;5078846;28;20474;-62
2024/01/07 05:10:21;;;;;;;1.60;1.50;;;-0.90;99.90;;;;;;5078118;28;20438;-60
2024/01/07 05:12:48;;;;;;;2.23;1.17;;;-0.90;99.90;;;;;;5078966;28;20481;-61
2024/01/07 05:15:15;;;;;;;2.50;1.60;;;-0.90;99.90;;;;;;5078123;28;20446;-61
2024/01/07 05:17:43;;;;;;;2.57;1.30;;;-1.00;99.90;;;;;;5077813;28;20456;-60
2024/01/07 05:20:11;;;;;;;4.17;1.53;;;-0.90;99.90;;;;;;5078104;28;20457;-61
2024/01/07 05:22:38;;;;;;;10.60;2.20;;;-0.90;99.90;;;;;;5077730;28;20450;-62
2024/01/07 05:25:05;;;;;;;1.60;1.30;;;-0.90;99.90;;;;;;5077338;28;20446;-62
2024/01/07 05:27:32;;;;;;;2.13;1.30;;;-1.00;99.90;;;;;;5077811;28;20478;-62
2024/01/07 05:29:59;;;;;;;2.30;1.57;;;-0.90;99.90;;;;;;5078686;28;20473;-58
2024/01/07 05:32:26;;;;;;;5.90;2.40;;;-0.90;99.90;;;;;;5079626;28;20446;-56
2024/01/07 05:34:54;;;;;;;1.73;1.47;;;-1.00;99.90;;;;;;5079543;28;20477;-57
2024/01/07 05:37:21;;;;;;;2.27;1.27;;;-1.00;99.90;;;;;;5079795;28;20497;-61
2024/01/07 05:39:48;;;;;;;2.57;1.40;;;-1.00;99.90;;;;;;5078741;28;20552;-62
2024/01/07 05:42:14;;;;;;;5.37;1.60;;;-1.00;99.90;;;;;;5077962;28;20442;-59
2024/01/07 05:44:41;;;;;;;2.30;1.63;;;-1.00;99.90;;;;;;5077997;28;20458;-59
2024/01/07 05:47:08;;;;;;;1.77;1.30;;;-1.00;99.90;;;;;;5077904;28;20505;-61
2024/01/07 05:49:35;;;;;;;2.83;1.10;;;-1.00;99.90;;;;;;5077418;28;20462;-61
2024/01/07 05:52:04;;;;;;;2.70;2.13;;;-1.00;99.90;;;;;;5076479;28;20470;-63
2024/01/07 05:54:30;;;;;;;2.90;1.70;;;-1.00;99.90;;;;;;5076487;28;20446;-62
2024/01/07 05:56:57;;;;;;;1.50;1.40;;;-1.00;99.90;;;;;;5076588;28;20475;-62
2024/01/07 05:59:24;;;;;;;1.47;1.13;;;-1.00;99.90;;;;;;5076095;28;20425;-61
2024/01/07 06:01:51;;;;;;;3.53;1.90;;;-1.00;99.90;;;;;;5076962;28;20465;-62
2024/01/07 06:04:18;;;;;;;4.67;2.10;;;-1.00;99.90;;;;;;5078111;28;20478;-62
2024/01/07 06:06:45;;;;;;;1.83;1.33;;;-1.00;99.90;;;;;;5078092;28;20453;-59
2024/01/07 06:09:13;;;;;;;2.23;1.80;;;-1.00;99.90;;;;;;5078042;28;20464;-62
2024/01/07 06:11:39;;;;;;;3.60;1.37;;;-1.00;99.90;;;;;;5077318;28;20450;-61
2024/01/07 06:14:07;;;;;;;2.40;2.07;;;-0.90;99.90;;;;;;5077396;28;20465;-62
2024/01/07 06:16:33;;;;;;;4.30;1.70;;;-0.80;99.90;;;;;;5077380;28;20444;-60
2024/01/07 06:19:01;;;;;;;3.80;1.93;;;-0.80;99.90;;;;;;5076814;28;20477;-62
2024/01/07 06:21:28;;;;;;;3.63;1.83;;;-0.80;99.90;;;;;;5077020;28;20482;-61
2024/01/07 06:23:54;;;;;;;3.63;1.57;;;-0.70;99.90;;;;;;5076674;28;20477;-62
2024/01/07 06:26:23;;;;;;;2.03;1.33;;;-0.70;99.90;;;;;;5077097;28;20495;-62
2024/01/07 06:28:50;;;;;;;2.63;1.70;;;-0.70;99.90;;;;;;5075993;28;20487;-61
2024/01/07 06:31:16;;;;;;;3.27;1.77;;;-0.70;99.90;;;;;;5077353;28;20550;-61
2024/01/07 06:33:43;;;;;;;2.27;1.90;;;-0.70;99.90;;;;;;5076851;28;20450;-62
2024/01/07 06:36:10;;;;;;;2.63;1.33;;;-0.70;99.90;;;;;;5077171;28;20452;-62
2024/01/07 06:38:37;;;;;;;5.00;1.40;;;-0.70;99.90;;;;;;5076464;28;20450;-62
2024/01/07 06:41:05;;;;;;;3.77;1.77;;;-0.70;99.90;;;;;;5076950;28;20455;-62
2024/01/07 06:43:33;;;;;;;3.00;1.93;;;-0.70;99.90;;;;;;5076429;28;20488;-63
2024/01/07 06:46:00;;;;;;;3.73;2.07;;;-0.60;99.90;;;;;;5073341;28;20526;-61
2024/01/07 06:48:27;;;;;;;3.20;1.87;;;-0.60;99.90;;;;;;5068381;28;20576;-62
2024/01/07 06:50:54;;;;;;;1.80;1.10;;;-0.50;99.90;;;;;;5069220;28;20474;-62
2024/01/07 06:53:21;;;;;;;3.70;2.10;;;-0.50;99.90;;;;;;5068854;28;20497;-62
2024/01/07 06:55:48;;;;;;;3.07;2.27;;;-0.50;99.90;;;;;;5070741;28;20877;-62
2024/01/07 06:58:15;;;;;;;2.53;1.40;;;-0.50;99.90;;;;;;5068637;28;20459;-62
2024/01/07 07:00:43;;;;;;;2.50;1.63;;;-0.50;99.90;;;;;;5067738;28;21033;-61
2024/01/07 07:03:11;;;;;;;3.13;1.83;;;-0.50;99.90;;;;;;5068447;28;20426;-61
2024/01/07 07:05:38;;;;;;;4.37;1.63;;;-0.50;99.90;;;;;;5068228;28;20475;-60
2024/01/07 07:08:06;;;;;;;5.20;2.43;;;-0.40;99.90;;;;;;5067999;28;20951;-62
2024/01/07 07:10:33;;;;;;;2.73;1.80;;;-0.40;99.90;;;;;;5067386;28;21019;-63
2024/01/07 07:13:00;;;;;;;2.57;2.10;;;-0.40;99.90;;;;;;5067513;28;20490;-60
2024/01/07 07:15:28;;;;;;;3.03;2.27;;;-0.40;99.90;;;;;;5066577;28;20492;-62
2024/01/07 07:17:57;;;;;;;1.50;1.10;;;-0.40;99.90;;;;;;5067323;28;20450;-62
2024/01/07 07:20:23;;;;;;;2.43;1.63;;;-0.40;99.90;;;;;;5067245;28;20451;-63
2024/01/07 07:22:50;;;;;;;2.13;1.60;;;-0.40;99.90;;;;;;5066425;28;20475;-62
2024/01/07 07:25:17;;;;;;;2.77;1.37;;;-0.30;99.90;;;;;;5066254;28;20454;-63
2024/01/07 07:27:44;;;;;;;3.37;2.30;;;0.80;99.90;;;;;;5066707;28;20522;-63
2024/01/07 07:30:11;;;;;;;2.60;1.57;;;-0.30;99.90;;;;;;5066888;28;20451;-62
2024/01/07 07:32:41;;;;;;;2.47;1.43;;;-0.90;99.90;;;;;;5067672;28;20974;-62
2024/01/07 07:35:09;;;;;;;2.67;1.97;;;-0.30;99.90;;;;;;5067325;28;20761;-62
2024/01/07 07:37:36;;;;;;;3.90;1.73;;;-0.20;99.90;;;;;;5066307;28;20500;-62
2024/01/07 07:40:03;;;;;;;3.20;1.43;;;-0.20;99.90;;;;;;5066032;28;20450;-61
2024/01/07 07:42:30;;;;;;;2.60;1.50;;;-0.20;99.90;;;;;;5065965;28;20445;-62
2024/01/07 07:44:57;;;;;;;2.17;1.27;;;-0.20;99.90;;;;;;5066006;28;20462;-61
2024/01/07 07:47:24;;;;;;;4.60;2.20;;;-0.10;99.90;;;;;;5065492;28;20957;-62
2024/01/07 07:49:51;;;;;;;3.10;1.63;;;-0.10;99.90;;;;;;5065223;28;20533;-60
2024/01/07 07:52:21;;;;;;;1.60;1.10;;;-0.10;99.90;;;;;;5065414;28;20455;-61
2024/01/07 07:54:49;;;;;;;2.07;1.20;;;0.00;99.90;;;;;;5066041;28;20441;-60
2024/01/07 07:57:16;;;;;;;2.20;1.87;;;0.00;99.90;;;;;;5066911;28;20427;-61
2024/01/07 07:59:42;;;;;;;2.23;1.60;;;0.00;99.90;;;;;;5065136;28;20482;-62
2024/01/07 08:02:10;;;;;;;3.40;2.20;;;0.00;99.90;;;;;;5065496;28;20508;-61
2024/01/07 08:04:37;;;;;;;1.73;1.30;;;0.00;99.90;;;;;;5064821;28;20448;-62
2024/01/07 08:07:03;;;;;;;1.50;1.20;;;0.00;99.90;;;;;;5064100;28;20469;-63
2024/01/07 08:09:32;;;;;;;3.37;2.17;;;0.00;99.90;;;;;;5064065;28;20503;-62
2024/01/07 08:12:00;;;;;;;2.90;1.83;;;0.00;99.90;;;;;;5064387;28;20479;-62
2024/01/07 08:14:26;;;;;;;3.67;2.37;;;0.10;99.90;;;;;;5066070;28;20470;-62
2024/01/07 08:16:53;;;;;;;3.30;1.90;;;0.10;99.90;;;;;;5072199;28;20461;-62
2024/01/07 08:19:20;;;;;;;4.30;1.60;;;0.10;99.90;;;;;;5073338;28;20450;-60
2024/01/07 08:21:47;;;;;;;1.73;1.47;;;0.10;99.90;;;;;;5073582;28;20464;-61
2024/01/07 08:24:14;;;;;;;1.80;1.53;;;0.10;99.90;;;;;;5073248;28;20477;-62
2024/01/07 08:26:42;;;;;;;4.60;2.53;;;0.10;99.90;;;;;;5074449;28;20478;-60
2024/01/07 08:29:12;;;;;;;2.83;1.97;;;0.10;99.90;;;;;;5073453;28;20500;-61
2024/01/07 08:31:42;;;;;;;3.63;1.90;;;0.10;99.90;;;;;;5073774;28;20502;-63
2024/01/07 08:34:08;;;;;;;4.87;1.70;;;0.20;99.90;;;;;;5073724;28;20434;-61
2024/01/07 08:36:35;;;;;;;7.43;1.93;;;0.20;99.90;;;;;;5073805;28;20430;-62
2024/01/07 08:39:02;;;;;;;2.67;1.87;;;0.20;99.90;;;;;;5074036;28;20557;-60
2024/01/07 08:41:29;;;;;;;3.40;2.10;;;0.20;99.90;;;;;;5073824;28;20479;-62
2024/01/07 08:43:57;;;;;;;4.00;2.60;;;0.20;99.90;;;;;;5074097;28;20442;-63
2024/01/07 08:46:26;;;;;;;3.07;1.93;;;0.20;99.90;;;;;;5075657;28;20496;-60
2024/01/07 08:48:53;;;;;;;3.17;2.00;;;0.20;99.90;;;;;;5076830;28;20492;-62
2024/01/07 08:51:20;;;;;;;5.20;2.37;;;0.30;99.90;;;;;;5077358;28;20480;-62
2024/01/07 08:53:47;;;;;;;6.30;2.67;;;0.30;99.90;;;;;;5076432;28;20460;-60
2024/01/07 08:56:14;;;;;;;4.00;2.20;;;0.40;99.90;;;;;;5076723;28;20784;-62
2024/01/07 08:58:42;;;;;;;2.37;1.60;;;0.40;99.90;;;;;;5076887;28;20439;-58
2024/01/07 09:01:10;;;;;;;4.73;2.27;;;0.40;99.90;;;;;;5076529;28;20448;-62
2024/01/07 09:03:37;;;;;;;4.03;2.50;;;0.50;99.90;;;;;;5076362;28;20432;-61
2024/01/07 09:06:04;;;;;;;8.23;2.90;;;0.50;99.90;;;;;;5076184;28;20437;-62
2024/01/07 09:08:31;;;;;;;4.10;2.97;;;0.60;99.90;;;;;;5076436;28;20501;-62
2024/01/07 09:11:00;;;;;;;3.60;2.57;;;0.60;99.90;;;;;;5077052;28;20557;-60
2024/01/07 09:13:27;;;;;;;3.30;2.83;;;0.60;99.90;;;;;;5076873;28;20474;-61
2024/01/07 09:15:54;;;;;;;4.97;2.67;;;0.60;99.90;;;;;;5077057;28;20472;-58
2024/01/07 09:18:22;;;;;;;6.07;2.93;;;0.80;99.90;;;;;;5076693;28;20471;-61
2024/01/07 09:20:49;;;;;;;4.80;2.40;;;0.70;99.90;;;;;;5076347;28;20473;-62
2024/01/07 09:23:16;;;;;;;3.57;2.80;;;0.70;99.90;;;;;;5075803;28;20450;-62
2024/01/07 09:25:43;;;;;;;7.73;2.70;;;0.70;99.90;;;;;;5075946;28;20479;-62
2024/01/07 09:28:10;;;;;;;2.00;1.80;;;0.80;99.90;;;;;;5076313;28;20459;-61
2024/01/07 09:30:36;;;;;;;4.83;2.10;;;0.80;99.90;;;;;;5076465;28;20456;-57
2024/01/07 09:33:03;;;;;;;4.60;3.10;;;0.90;99.90;;;;;;5076306;28;20448;-63
2024/01/07 09:35:32;;;;;;;4.17;2.50;;;0.90;99.90;;;;;;5076090;28;20470;-62
2024/01/07 09:37:58;;;;;;;3.60;2.43;;;0.90;99.90;;;;;;5075470;28;20460;-63
2024/01/07 09:40:27;;;;;;;3.90;2.60;;;1.00;99.90;;;;;;5076059;28;20473;-61
2024/01/07 09:42:54;;;;;;;6.93;2.57;;;1.10;99.90;;;;;;5075937;28;20446;-63
2024/01/07 09:45:23;;;;;;;3.90;2.50;;;1.10;99.90;;;;;;5075962;28;20511;-62
2024/01/07 09:47:50;;;;;;;3.20;2.40;;;1.00;99.90;;;;;;5076026;28;20431;-63
2024/01/07 09:50:17;;;;;;;3.33;2.50;;;1.10;99.90;;;;;;5075856;28;20585;-62
2024/01/07 09:52:46;;;;;;;4.50;2.40;;;1.00;99.90;;;;;;5075103;28;20455;-62
2024/01/07 09:55:22;;;;;;;4.97;3.00;;;1.00;99.90;;;;;;5075439;28;20441;-62
2024/01/07 09:57:49;;;;;;;3.63;2.23;;;1.10;99.90;;;;;;5075847;28;20415;-61
2024/01/07 10:00:17;;;;;;;3.80;3.37;;;1.00;99.90;;;;;;5075463;28;20438;-63
2024/01/07 10:02:44;;;;;;;3.33;2.80;;;1.00;99.90;;;;;;5075231;28;20455;-61
2024/01/07 10:05:11;;;;;;;6.53;3.90;;;1.00;99.90;;;;;;5075666;28;20446;-61
2024/01/07 10:07:38;;;;;;;5.03;3.60;;;1.00;99.90;;;;;;5075982;28;20474;-62
2024/01/07 10:10:16;;;;;;;6.80;3.23;;;1.00;99.90;;;;;;5075729;28;20487;-63
2024/01/07 10:12:45;;;;;;;6.43;3.50;;;0.90;99.90;;;;;;5075286;28;20476;-61
2024/01/07 10:15:12;;;;;;;5.00;2.70;;;0.90;99.90;;;;;;5075114;28;20444;-62
2024/01/07 10:17:39;;;;;;;5.33;3.80;;;1.00;99.90;;;;;;5074656;28;20468;-62
2024/01/07 10:20:09;;;;;;;5.80;2.80;;;1.00;99.90;;;;;;5075041;28;20480;-62
2024/01/07 10:22:37;;;;;;;9.43;3.50;;;1.00;99.90;;;;;;5075310;28;20475;-66
2024/01/07 10:25:04;;;;;;;6.80;4.57;;;1.00;99.90;;;;;;5074741;28;20452;-66
2024/01/07 10:27:35;;;;;;;4.93;3.13;;;0.90;99.90;;;;;;5074275;28;20509;-63
2024/01/07 10:30:03;;;;;;;8.73;4.10;;;0.90;99.90;;;;;;5074567;28;20452;-65
2024/01/07 10:32:30;;;;;;;4.60;3.37;;;1.00;99.90;;;;;;5074565;28;20570;-65
2024/01/07 10:35:02;;;;;;;6.40;3.20;;;1.00;99.90;;;;;;5075193;28;20475;-65
2024/01/07 10:37:29;;;;;;;4.93;2.50;;;1.00;99.90;;;;;;5074773;28;20996;-65
2024/01/07 10:40:02;;;;;;;6.63;3.33;;;1.00;99.90;;;;;;5074235;28;20444;-65
2024/01/07 10:42:32;;;;;;;7.70;4.10;;;1.00;99.90;;;;;;5074943;28;20430;-65
2024/01/07 10:45:00;;;;;;;3.30;3.03;;;1.00;99.90;;;;;;5074715;28;20431;-64
2024/01/07 10:47:30;;;;;;;5.27;3.00;;;1.00;99.90;;;;;;5074046;28;20450;-62
2024/01/07 10:49:59;;;;;;;7.50;2.70;;;0.90;99.90;;;;;;5073116;28;20544;-66
2024/01/07 10:52:28;;;;;;;6.93;4.30;;;1.00;99.90;;;;;;5074105;28;20506;-65
2024/01/07 10:54:58;;;;;;;8.00;4.35;;;1.00;99.90;;;;;;5076329;28;20419;-65
2024/01/07 10:57:35;;;;;;;7.40;3.50;;;1.10;99.90;;;;;;5078614;28;20207;-63
2024/01/07 11:00:07;;;;;;;7.00;4.50;;;1.20;99.90;;;;;;5078522;28;20458;-63
2024/01/07 11:02:41;;;;;;;7.03;3.87;;;1.20;99.90;;;;;;5077337;28;20479;-64
2024/01/07 11:05:18;;;;;;;7.57;3.00;;;1.20;99.90;;;;;;5077268;28;20488;-63
2024/01/07 11:07:54;;;;;;;4.20;3.40;;;1.20;99.90;;;;;;5076692;28;20452;-65
2024/01/07 11:10:26;;;;;;;6.40;3.57;;;1.20;99.90;;;;;;5076276;28;20495;-64
2024/01/07 11:12:54;;;;;;;5.90;4.20;;;1.20;99.90;;;;;;5075904;28;20459;-63
2024/01/07 11:15:53;;;;;;;5.50;3.33;;;1.20;99.90;;;;;;5076059;28;20491;-65
2024/01/07 11:18:20;;;;;;;6.00;3.43;;;1.30;99.90;;;;;;5075833;28;20440;-65
2024/01/07 11:20:47;;;;;;;6.83;4.17;;;1.20;99.90;;;;;;5076052;28;20466;-64
2024/01/07 11:23:33;;;;;;;12.70;5.17;;;1.30;99.90;;;;;;5076490;28;20492;-65
2024/01/07 11:26:01;;;;;;;6.33;3.70;;;1.30;99.90;;;;;;5076757;28;20485;-64
2024/01/07 11:28:47;;;;;;;10.50;2.93;;;1.30;99.90;;;;;;5076703;28;20476;-65
2024/01/07 11:31:17;;;;;;;4.60;3.10;;;1.30;99.90;;;;;;5076003;28;20801;-65
2024/01/07 11:33:45;;;;;;;4.80;3.20;;;1.30;99.90;;;;;;5077318;28;20443;-63
2024/01/07 11:36:13;;;;;;;7.37;4.20;;;1.40;99.90;;;;;;5077052;28;20468;-65
2024/01/07 11:38:43;;;;;;;5.00;3.63;;;1.40;99.90;;;;;;5077323;28;20428;-67
2024/01/07 11:41:12;;;;;;;6.03;3.47;;;1.40;99.90;;;;;;5077366;28;20474;-72
2024/01/07 11:43:39;;;;;;;7.03;3.53;;;1.40;99.90;;;;;;5077324;28;20466;-64
2024/01/07 11:46:06;;;;;;;4.73;3.50;;;1.40;99.90;;;;;;5076410;28;20447;-64
2024/01/07 11:48:35;;;;;;;20.07;7.60;;;1.40;99.90;;;;;;5076151;28;20457;-63
2024/01/07 11:51:01;;;;;;;10.80;6.53;;;1.90;99.90;;;;;;5076693;28;20430;-67
2024/01/07 11:53:29;;;;;;;3.87;2.90;;;2.90;99.90;;;;;;5076474;28;20487;-65
2024/01/07 11:55:55;;;;;;;5.57;3.97;;;2.60;99.90;;;;;;5076896;28;20443;-65
2024/01/07 11:58:22;;;;;;;8.07;4.07;;;2.30;99.90;;;;;;5076383;28;20463;-68
2024/01/07 12:00:50;;;;;;;4.70;2.90;;;2.10;99.90;;;;;;5076445;28;20443;-61
2024/01/07 12:03:17;;;;;;;6.50;3.90;;;2.00;99.90;;;;;;5076878;28;20435;-64
2024/01/07 12:05:47;;;;;;;13.40;5.60;;;1.80;99.90;;;;;;5077539;28;20476;-65
2024/01/07 12:08:16;;;;;;;9.40;4.27;;;1.70;99.90;;;;;;5076833;28;20527;-64
2024/01/07 12:10:43;;;;;;;4.87;4.27;;;1.70;99.90;;;;;;5075410;28;20574;-66
2024/01/07 12:13:13;;;;;;;9.10;4.40;;;1.70;99.90;;;;;;5075007;28;20454;-64
2024/01/07 12:15:41;;;;;;;6.63;3.00;;;1.60;99.90;;;;;;5074840;28;20428;-64
2024/01/07 12:18:07;;;;;;;14.33;3.90;;;1.60;99.90;;;;;;5074289;28;20496;-65
2024/01/07 12:20:34;;;;;;;2.90;2.23;;;1.60;99.90;;;;;;5077635;28;20426;-64
2024/01/07 12:23:08;;;;;;;4.13;2.67;;;1.50;99.90;;;;;;5078677;28;20468;-65
2024/01/07 12:25:35;;;;;;;6.57;3.23;;;1.50;99.90;;;;;;5078786;28;20486;-63
2024/01/07 12:28:02;;;;;;;3.93;2.90;;;1.50;99.90;;;;;;5078664;28;20440;-65
2024/01/07 12:30:30;;;;;;;9.40;2.70;;;1.50;99.90;;;;;;5078171;28;20960;-65
2024/01/07 12:33:00;;;;;;;4.00;2.83;;;1.40;99.90;;;;;;5078275;28;20448;-67
2024/01/07 12:35:27;;;;;;;4.40;3.03;;;1.50;99.90;;;;;;5078435;28;20460;-67
2024/01/07 12:37:56;;;;;;;6.30;3.43;;;1.50;99.90;;;;;;5078421;28;20442;-65
2024/01/07 12:40:24;;;;;;;6.60;3.13;;;1.50;99.90;;;;;;5078807;28;20446;-64
2024/01/07 12:42:51;;;;;;;5.00;2.70;;;1.50;99.90;;;;;;5078689;28;20446;-66
2024/01/07 12:45:21;;;;;;;4.73;2.30;;;1.50;99.90;;;;;;5078144;28;20450;-66
2024/01/07 12:47:48;;;;;;;2.93;2.63;;;1.50;99.90;;;;;;5078767;28;20492;-67
2024/01/07 12:50:15;;;;;;;3.20;2.33;;;1.50;99.90;;;;;;5078676;28;20493;-65
2024/01/07 12:52:42;;;;;;;4.37;2.47;;;1.50;99.90;;;;;;5079083;28;20462;-65
2024/01/07 12:55:09;;;;;;;4.03;2.50;;;1.50;99.90;;;;;;5078650;28;20428;-66